HALF-HOURLY OBSERVATIONS INDEX

036

Central West

BLACKALL AIRPORT

Site: 036034
Alt: 281.3m
165km SE of LONGREACH


  Time     Wind        Temp  DP   Baro     Rain since   Rain past  Vis(m), Cloud(base in m), Weather
  local        km/h                         9am  last   hr   10m    
Mon 10:00  ENE  9/ 17  30.1 20.1  1014.5    0.0   0.0   0.0   0.0   ----- 
Mon 10:30  NNE  6/  9  31.2 20.2  1014.2    0.0   0.0   0.0   0.0   ----- 
Mon 11:00   SE  7/ 15  31.9 19.9  1013.8    0.0   0.0   0.0   0.0   ----- 
Mon 11:30  ESE 11/ 19  32.6 21.1  1013.7    0.0   0.0   0.0   0.0   ----- 
Mon 12:00  SSE 19/ 28  32.7 19.9  1013.2    0.0   0.0   0.0   0.0   ----- 
Mon 12:30    E 13/ 28  33.5 21.0  1012.8    0.0   0.0   0.0   0.0   ----- 
Mon 13:00  ESE 17/ 26  32.8 18.6  1012.4    0.0   0.0   0.0   0.0   ----- 
Mon 13:30   SE 15/ 24  34.2 19.4  1011.9    0.0   0.0   0.0   0.0   ----- 
Mon 14:00    E 17/ 20  33.3 19.0  1011.5    0.0   0.0   0.0   0.0   ----- 
Mon 14:30    E  7/ 15  34.6 19.0  1010.9    0.0   0.0   0.0   0.0   ----- 
Mon 15:00   NE 17/ 24  35.2 18.3  1010.3    0.0   0.0   0.0   0.0   ----- 
Mon 15:30  ENE 17/ 26  35.0 18.6  1010.1    0.0   0.0   0.0   0.0   ----- 

LONGREACH AERO

Site: 036031
Alt: 192.2m
5km E of LONGREACH


  Time     Wind        Temp  DP   Baro     Rain since   Rain past  Vis(m), Cloud(base in m), Weather
  local        km/h                         9am  last   hr   10m    
Mon 10:00    E 13/ 19  32.1 20.7  1013.1    0.0   0.0   0.0   0.0   10000 
Mon 10:30    E 13/ 22  32.8 20.3  1012.8    0.0   0.0   0.0   0.0   10000 
Mon 11:00    E 13/ 22  33.8 20.2  1012.5    0.0   0.0   0.0   0.0   10000 
Mon 11:30   SE 15/ 22  35.0 20.2  1012.2    0.0   0.0   0.0   0.0   10000|SC1470 
Mon 12:00   SE 19/ 26  34.9 19.7  1011.8    0.0   0.0   0.0   0.0   10000|SC1650 
Mon 12:30  ESE 20/ 26  35.8 19.7  1011.4    0.0   0.0   0.0   0.0   10000|SC1590 SC2040 
Mon 13:00    E 13/ 17  35.2 19.9  1011.0    0.0   0.0   0.0   0.0   10000|SC1710 BR2460 
Mon 13:30  ESE 15/ 30  35.4 19.3  1010.6    0.0   0.0   0.0   0.0   10000|SC1830 OC2640 
Mon 14:00    E 20/ 30  35.4 18.9  1010.1    0.0   0.0   0.0   0.0   10000|SC1830 OC2880 
Mon 14:30    E 20/ 30  36.1 19.1  1009.5    0.0   0.0   0.0   0.0   10000|SC1890 SC2160 BR2880 
Mon 15:00  SSE 15/ 22  36.2 19.2  1009.1    0.0   0.0   0.0   0.0   10000|SC1950 OC3000 
Mon 15:30  ESE 17/ 26  35.9 19.3  1008.9    0.0   0.0   0.0   0.0   10000|SC1980 SC2550 BR3000